createdAt,value
2022-09-18T00:01:16.208Z,4.72
2022-09-18T00:03:43.640Z,5.10
2022-09-18T00:06:20.483Z,4.80
2022-09-18T00:08:52.234Z,4.43
2022-09-18T00:11:22.338Z,4.50
2022-09-18T00:13:50.610Z,4.97
2022-09-18T00:16:20.176Z,4.95
2022-09-18T00:18:48.094Z,4.13
2022-09-18T00:21:18.222Z,4.43
2022-09-18T00:23:46.128Z,4.97
2022-09-18T00:26:15.223Z,4.57
2022-09-18T00:28:42.412Z,4.78
2022-09-18T00:31:15.634Z,5.05
2022-09-18T00:33:43.292Z,5.07
2022-09-18T00:36:13.428Z,5.28
2022-09-18T00:38:41.146Z,5.03
2022-09-18T00:41:13.176Z,4.90
2022-09-18T00:43:40.569Z,5.18
2022-09-18T00:46:36.763Z,5.05
2022-09-18T00:49:25.402Z,5.40
2022-09-18T00:51:55.613Z,5.60
2022-09-18T00:54:31.772Z,5.40
2022-09-18T00:57:10.252Z,5.45
2022-09-18T00:59:39.938Z,5.35
2022-09-18T01:02:06.767Z,5.13
2022-09-18T01:04:34.044Z,6.00
2022-09-18T01:07:35.354Z,5.70
2022-09-18T01:10:17.448Z,6.45
2022-09-18T01:13:02.164Z,5.70
2022-09-18T01:15:54.636Z,7.05
2022-09-18T01:18:21.681Z,5.32
2022-09-18T01:21:04.554Z,5.60
2022-09-18T01:23:52.648Z,6.25
2022-09-18T01:26:45.832Z,5.90
2022-09-18T01:29:23.640Z,5.35
2022-09-18T01:31:56.504Z,5.53
2022-09-18T01:34:44.930Z,5.85
2022-09-18T01:37:17.067Z,5.72
2022-09-18T01:39:57.097Z,5.70
2022-09-18T01:42:28.646Z,6.90
2022-09-18T01:44:59.336Z,5.43
2022-09-18T01:47:32.167Z,6.47
2022-09-18T01:50:01.770Z,5.97
2022-09-18T01:52:35.244Z,5.45
2022-09-18T01:55:06.913Z,5.55
2022-09-18T01:57:46.287Z,5.55
2022-09-18T02:00:14.488Z,5.28
2022-09-18T02:02:51.959Z,5.65
2022-09-18T02:05:43.523Z,5.72
2022-09-18T02:08:27.059Z,5.63
2022-09-18T02:11:08.594Z,5.05
2022-09-18T02:13:40.536Z,4.45
2022-09-18T02:16:18.283Z,5.28
2022-09-18T02:18:51.205Z,4.90
2022-09-18T02:21:26.259Z,5.15
2022-09-18T02:23:56.471Z,5.20
2022-09-18T02:26:24.089Z,6.13
2022-09-18T02:28:51.093Z,5.05
2022-09-18T02:31:18.361Z,5.93
2022-09-18T02:33:45.397Z,5.10
2022-09-18T02:36:32.463Z,5.65
2022-09-18T02:39:28.534Z,6.38
2022-09-18T02:42:10.536Z,5.30
2022-09-18T02:45:06.591Z,5.75
2022-09-18T02:48:10.663Z,7.28
2022-09-18T02:51:10.851Z,7.28
2022-09-18T02:54:12.069Z,6.32
2022-09-18T02:56:52.907Z,7.97
2022-09-18T02:59:26.633Z,7.63
2022-09-18T03:01:58.826Z,8.35
2022-09-18T03:04:28.013Z,7.95
2022-09-18T03:07:06.581Z,7.38
2022-09-18T03:09:40.096Z,7.57
2022-09-18T03:12:08.818Z,7.22
2022-09-18T03:14:41.203Z,8.38
2022-09-18T03:17:09.493Z,7.78
2022-09-18T03:19:36.277Z,7.72
2022-09-18T03:22:03.422Z,9.05
2022-09-18T03:24:34.144Z,7.57
2022-09-18T03:27:02.945Z,7.53
2022-09-18T03:29:30.064Z,8.90
2022-09-18T03:31:57.866Z,8.40
2022-09-18T03:34:24.953Z,9.02
2022-09-18T03:36:51.941Z,10.32
2022-09-18T03:39:19.312Z,10.02
2022-09-18T03:41:47.759Z,8.82
2022-09-18T03:44:14.685Z,9.80
2022-09-18T03:46:44.234Z,9.40
2022-09-18T03:49:11.191Z,9.30
2022-09-18T03:51:40.202Z,10.50
2022-09-18T03:54:08.791Z,9.63
2022-09-18T03:56:58.431Z,9.55
2022-09-18T04:00:00.928Z,9.60
2022-09-18T04:02:43.423Z,9.50
2022-09-18T04:05:29.320Z,10.27
2022-09-18T04:08:14.769Z,9.15
2022-09-18T04:10:47.464Z,9.73
2022-09-18T04:13:14.611Z,8.68
2022-09-18T04:15:41.681Z,10.30
2022-09-18T04:18:09.429Z,9.32
2022-09-18T04:20:36.223Z,9.73
2022-09-18T04:23:05.350Z,9.02
2022-09-18T04:25:34.034Z,9.35
2022-09-18T04:28:01.591Z,8.88
2022-09-18T04:30:28.880Z,8.77
2022-09-18T04:32:55.922Z,8.85
2022-09-18T04:35:24.712Z,8.27
2022-09-18T04:37:51.580Z,7.60
2022-09-18T04:40:18.630Z,8.15
2022-09-18T04:42:46.541Z,8.15
2022-09-18T04:45:13.688Z,8.10
2022-09-18T04:47:41.340Z,7.97
2022-09-18T04:50:08.969Z,9.30
2022-09-18T04:52:36.065Z,7.72
2022-09-18T04:55:04.429Z,8.38
2022-09-18T04:57:32.148Z,8.88
2022-09-18T04:59:59.830Z,8.48
2022-09-18T05:02:26.930Z,8.07
2022-09-18T05:04:54.148Z,8.55
2022-09-18T05:07:34.482Z,7.47
2022-09-18T05:10:01.874Z,7.68
2022-09-18T05:12:31.018Z,8.02
2022-09-18T05:14:58.286Z,8.35
2022-09-18T05:17:25.218Z,9.00
2022-09-18T05:19:59.917Z,10.75
2022-09-18T05:24:58.294Z,8.57
2022-09-18T05:27:27.073Z,9.27
2022-09-18T05:29:55.489Z,10.05
2022-09-18T05:32:28.047Z,8.85
2022-09-18T05:34:55.900Z,9.27
2022-09-18T05:37:22.836Z,9.85
2022-09-18T05:39:53.610Z,9.48
2022-09-18T05:42:20.643Z,10.32
2022-09-18T05:44:47.464Z,9.15
2022-09-18T05:47:19.711Z,10.20
2022-09-18T05:49:46.582Z,10.35
2022-09-18T05:52:13.406Z,9.25
2022-09-18T05:54:40.954Z,9.65
2022-09-18T05:57:09.268Z,9.23
2022-09-18T05:59:36.136Z,10.18
2022-09-18T06:02:04.732Z,9.73
2022-09-18T06:05:07.486Z,9.63
2022-09-18T06:07:34.482Z,8.30
2022-09-18T06:10:01.400Z,9.50
2022-09-18T06:12:28.260Z,9.68
2022-09-18T06:14:55.389Z,9.05
2022-09-18T06:17:24.501Z,8.95
2022-09-18T06:19:54.238Z,7.07
2022-09-18T06:22:21.611Z,7.20
2022-09-18T06:24:48.734Z,7.25
2022-09-18T06:27:18.501Z,6.35
2022-09-18T06:29:45.568Z,7.75
2022-09-18T06:32:16.052Z,6.53
2022-09-18T06:34:43.042Z,6.57
2022-09-18T06:37:13.578Z,5.78
2022-09-18T06:39:43.737Z,6.03
2022-09-18T06:42:19.496Z,4.50
2022-09-18T06:45:15.576Z,5.57
2022-09-18T06:47:44.644Z,5.60
2022-09-18T06:50:12.724Z,6.40
2022-09-18T06:52:39.539Z,4.80
2022-09-18T06:55:06.926Z,5.22
2022-09-18T06:57:34.028Z,4.50
2022-09-18T07:00:01.022Z,4.63
2022-09-18T07:02:33.807Z,4.47
2022-09-18T07:05:25.624Z,4.70
2022-09-18T07:07:53.160Z,4.30
2022-09-18T07:10:20.405Z,4.20
2022-09-18T07:12:48.956Z,4.72
2022-09-18T07:15:20.909Z,3.70
2022-09-18T07:17:47.811Z,4.25
2022-09-18T07:20:17.080Z,3.80
2022-09-18T07:22:52.750Z,5.15
2022-09-18T07:25:20.637Z,4.60
2022-09-18T07:27:49.938Z,4.40
2022-09-18T07:30:18.953Z,4.78
2022-09-18T07:32:46.588Z,4.13
2022-09-18T07:35:17.570Z,4.63
2022-09-18T07:37:44.499Z,4.40
2022-09-18T07:40:17.367Z,4.28
2022-09-18T07:43:07.578Z,4.15
2022-09-18T07:45:36.687Z,4.78
2022-09-18T07:48:05.298Z,5.00
2022-09-18T07:50:36.296Z,5.28
2022-09-18T07:53:05.423Z,5.30
2022-09-18T07:55:37.000Z,5.85
2022-09-18T07:58:06.847Z,6.80
2022-09-18T08:01:11.870Z,6.55
2022-09-18T08:03:45.925Z,6.85
2022-09-18T08:06:12.858Z,7.85
2022-09-18T08:09:06.076Z,8.52
2022-09-18T08:11:54.167Z,8.70
2022-09-18T08:14:29.222Z,7.57
2022-09-18T08:17:22.321Z,8.10
2022-09-18T08:20:24.649Z,8.02
2022-09-18T08:22:54.650Z,8.55
2022-09-18T08:25:27.467Z,7.78
2022-09-18T08:28:13.722Z,7.03
2022-09-18T08:30:53.546Z,7.63
2022-09-18T08:33:20.972Z,6.90
2022-09-18T08:35:48.840Z,7.43
2022-09-18T08:38:33.278Z,6.57
2022-09-18T08:41:55.408Z,6.38
2022-09-18T08:44:40.418Z,6.30
2022-09-18T08:47:18.975Z,6.05
2022-09-18T08:49:54.500Z,6.10
2022-09-18T08:52:24.553Z,6.10
2022-09-18T08:55:15.035Z,6.05
2022-09-18T08:58:03.303Z,4.90
2022-09-18T09:00:38.724Z,5.45
2022-09-18T09:03:25.548Z,5.28
2022-09-18T09:05:58.770Z,5.07
2022-09-18T09:09:04.601Z,4.97
2022-09-18T09:11:34.046Z,4.90
2022-09-18T09:14:55.961Z,5.00
2022-09-18T09:17:41.693Z,5.90
2022-09-18T09:20:35.457Z,4.80
2022-09-18T09:23:12.744Z,7.15
2022-09-18T09:26:04.226Z,6.90
2022-09-18T09:29:10.250Z,6.93
2022-09-18T09:32:06.264Z,4.82
2022-09-18T09:34:58.354Z,4.97
2022-09-18T09:37:48.340Z,4.35
2022-09-18T09:40:32.513Z,4.82
2022-09-18T09:43:11.531Z,4.35
2022-09-18T09:45:46.250Z,4.05
2022-09-18T09:48:35.243Z,5.75
2022-09-18T09:51:05.458Z,4.95
2022-09-18T09:53:32.437Z,4.70
2022-09-18T09:56:26.436Z,5.13
2022-09-18T09:59:21.549Z,4.63
2022-09-18T10:02:37.245Z,4.28
2022-09-18T10:05:39.534Z,4.00
2022-09-18T10:08:27.362Z,4.63
2022-09-18T10:11:00.672Z,4.13
2022-09-18T10:13:40.318Z,4.68
2022-09-18T10:16:16.984Z,4.68
2022-09-18T10:18:47.238Z,4.00
2022-09-18T10:21:24.480Z,3.10
2022-09-18T10:24:15.952Z,3.20
2022-09-18T10:26:53.901Z,3.13
2022-09-18T10:29:21.038Z,3.53
2022-09-18T10:31:54.410Z,3.20
2022-09-18T10:34:42.435Z,3.72
2022-09-18T10:37:29.505Z,3.20
2022-09-18T10:40:37.331Z,3.67
2022-09-18T10:43:07.707Z,2.85
2022-09-18T10:45:41.849Z,3.35
2022-09-18T10:48:28.161Z,3.05
2022-09-18T10:50:57.603Z,2.53
2022-09-18T10:53:39.835Z,3.38
2022-09-18T10:56:20.960Z,3.00
2022-09-18T10:58:51.449Z,2.60
2022-09-18T11:01:19.599Z,2.50
2022-09-18T11:04:02.829Z,2.42
2022-09-18T11:06:35.889Z,3.08
2022-09-18T11:09:30.529Z,2.80
2022-09-18T11:11:57.719Z,2.80
2022-09-18T11:17:05.450Z,3.10
2022-09-18T11:19:40.007Z,2.92
2022-09-18T11:22:45.358Z,3.17
2022-09-18T11:25:22.837Z,3.30
2022-09-18T11:27:58.037Z,2.17
2022-09-18T11:30:35.542Z,2.50
2022-09-18T11:33:27.095Z,2.83
2022-09-18T11:36:01.631Z,2.85
2022-09-18T11:38:31.954Z,2.53
2022-09-18T11:41:01.782Z,2.70
2022-09-18T11:43:41.212Z,2.67
2022-09-18T11:46:31.889Z,2.47
2022-09-18T11:49:07.712Z,2.25
2022-09-18T11:51:53.692Z,2.80
2022-09-18T11:54:42.306Z,2.22
2022-09-18T11:57:17.671Z,2.08
2022-09-18T11:59:55.154Z,2.13
2022-09-18T12:02:41.306Z,2.50
2022-09-18T12:05:58.997Z,2.10
2022-09-18T12:08:55.018Z,2.22
2022-09-18T12:12:00.848Z,2.33
2022-09-18T12:14:41.792Z,2.10
2022-09-18T12:17:34.691Z,2.17
2022-09-18T12:20:06.986Z,2.40
2022-09-18T12:22:41.747Z,2.63
2022-09-18T12:25:14.323Z,2.67
2022-09-18T12:28:41.343Z,2.33
2022-09-18T12:32:01.606Z,2.15
2022-09-18T12:34:54.857Z,3.08
2022-09-18T12:37:31.881Z,2.65
2022-09-18T12:40:24.901Z,3.80
2022-09-18T12:43:10.275Z,2.42
2022-09-18T12:45:42.292Z,2.85
2022-09-18T12:51:01.005Z,2.60
2022-09-18T12:53:49.286Z,3.03
2022-09-18T12:56:16.299Z,2.45
2022-09-18T12:58:58.425Z,2.28
2022-09-18T13:01:31.778Z,2.63
2022-09-18T13:04:30.373Z,2.33
2022-09-18T13:07:26.399Z,2.42
2022-09-18T13:10:17.405Z,2.00
2022-09-18T13:13:15.478Z,2.13
2022-09-18T13:15:49.069Z,1.92
2022-09-18T13:18:19.559Z,2.30
2022-09-18T13:20:46.986Z,1.92
2022-09-18T13:23:27.790Z,2.10
2022-09-18T13:25:56.871Z,1.90
2022-09-18T13:28:27.551Z,2.08
2022-09-18T13:31:22.757Z,2.17
2022-09-18T13:34:01.943Z,1.90
2022-09-18T13:36:32.923Z,2.70
2022-09-18T13:39:04.827Z,2.47
2022-09-18T13:41:48.876Z,2.10
2022-09-18T13:44:28.518Z,2.75
2022-09-18T13:46:58.281Z,3.08
2022-09-18T13:49:32.115Z,2.92
2022-09-18T13:52:34.050Z,2.53
2022-09-18T13:55:13.062Z,3.03
2022-09-18T13:57:41.512Z,2.60
2022-09-18T14:00:20.561Z,3.10
2022-09-18T14:02:48.980Z,2.45
2022-09-18T14:05:38.536Z,2.92
2022-09-18T14:08:10.300Z,3.17
2022-09-18T14:10:54.906Z,2.88
2022-09-18T14:13:38.267Z,3.47
2022-09-18T14:16:20.596Z,3.70
2022-09-18T14:18:47.558Z,4.32
2022-09-18T14:21:17.629Z,4.13
2022-09-18T14:23:47.063Z,4.15
2022-09-18T14:26:29.547Z,3.95
2022-09-18T14:29:05.184Z,4.05
2022-09-18T14:31:49.053Z,4.18
2022-09-18T14:34:23.106Z,4.07
2022-09-18T14:36:55.699Z,4.18
2022-09-18T14:39:35.445Z,4.18
2022-09-18T14:42:23.515Z,3.88
2022-09-18T14:44:54.255Z,4.00
2022-09-18T14:47:23.753Z,4.50
2022-09-18T14:49:51.387Z,4.28
2022-09-18T14:52:22.569Z,4.95
2022-09-18T14:54:51.608Z,4.35
2022-09-18T14:57:26.152Z,4.70
2022-09-18T14:59:58.628Z,5.68
2022-09-18T15:02:52.617Z,4.18
2022-09-18T15:05:22.388Z,4.95
2022-09-18T15:08:07.195Z,4.60
2022-09-18T15:10:37.954Z,4.70
2022-09-18T15:13:09.337Z,4.72
2022-09-18T15:15:39.495Z,4.60
2022-09-18T15:18:24.026Z,5.07
2022-09-18T15:20:53.018Z,4.93
2022-09-18T15:23:27.617Z,6.05
2022-09-18T15:25:58.849Z,5.38
2022-09-18T15:28:28.931Z,5.60
2022-09-18T15:31:03.794Z,5.82
2022-09-18T15:33:35.096Z,5.75
2022-09-18T15:36:04.685Z,6.82
2022-09-18T15:38:45.748Z,5.82
2022-09-18T15:41:31.396Z,5.97
2022-09-18T15:43:58.479Z,5.20
2022-09-18T15:46:29.104Z,5.68
2022-09-18T15:49:00.392Z,5.90
2022-09-18T15:51:30.281Z,5.80
2022-09-18T15:54:03.333Z,6.00
2022-09-18T15:56:33.950Z,5.47
2022-09-18T15:59:04.275Z,5.95
2022-09-18T16:01:40.016Z,6.73
2022-09-18T16:04:24.278Z,5.65
2022-09-18T16:07:00.427Z,5.50
2022-09-18T16:09:38.209Z,5.60
2022-09-18T16:12:26.797Z,6.40
2022-09-18T16:14:56.677Z,5.85
2022-09-18T16:17:32.816Z,5.85
2022-09-18T16:20:27.114Z,5.93
2022-09-18T16:22:58.538Z,5.43
2022-09-18T16:25:29.137Z,5.95
2022-09-18T16:27:59.332Z,5.22
2022-09-18T16:30:28.005Z,5.60
2022-09-18T16:33:14.815Z,4.78
2022-09-18T16:35:41.833Z,5.18
2022-09-18T16:38:09.621Z,5.80
2022-09-18T16:40:36.795Z,5.28
2022-09-18T16:43:03.804Z,5.13
2022-09-18T16:45:31.042Z,5.03
2022-09-18T16:48:00.572Z,4.95
2022-09-18T16:50:28.114Z,4.93
2022-09-18T16:52:58.479Z,5.68
2022-09-18T16:55:29.042Z,5.00
2022-09-18T16:57:57.374Z,5.22
2022-09-18T17:00:25.013Z,5.55
2022-09-18T17:02:53.008Z,5.15
2022-09-18T17:05:20.024Z,6.03
2022-09-18T17:07:47.056Z,5.20
2022-09-18T17:10:13.980Z,5.15
2022-09-18T17:12:41.892Z,5.90
2022-09-18T17:15:10.279Z,6.15
2022-09-18T17:17:37.222Z,5.75
2022-09-18T17:20:05.599Z,6.35
2022-09-18T17:22:33.197Z,6.35
2022-09-18T17:25:00.015Z,5.43
2022-09-18T17:27:26.906Z,5.88
2022-09-18T17:29:54.284Z,5.78
2022-09-18T17:32:21.401Z,4.80
2022-09-18T17:34:48.403Z,5.55
2022-09-18T17:37:15.745Z,5.57
2022-09-18T17:39:42.655Z,4.90
2022-09-18T17:42:09.532Z,4.57
2022-09-18T17:44:37.154Z,4.07
2022-09-18T17:47:04.057Z,3.80
2022-09-18T17:49:34.844Z,4.43
2022-09-18T17:52:02.239Z,4.30
2022-09-18T17:54:29.144Z,3.80
2022-09-18T17:56:56.045Z,3.45
2022-09-18T17:59:23.133Z,4.03
2022-09-18T18:01:50.622Z,4.18
2022-09-18T18:04:18.015Z,4.25
2022-09-18T18:06:48.927Z,3.92
2022-09-18T18:09:16.397Z,3.90
2022-09-18T18:11:44.314Z,3.38
2022-09-18T18:14:11.633Z,3.53
2022-09-18T18:16:41.104Z,3.25
2022-09-18T18:19:12.472Z,3.53
2022-09-18T18:24:12.940Z,3.10
2022-09-18T18:26:40.676Z,3.42
2022-09-18T18:29:11.568Z,2.70
2022-09-18T18:31:40.662Z,2.97
2022-09-18T18:34:10.837Z,3.00
2022-09-18T18:36:40.043Z,2.85
2022-09-18T18:39:12.016Z,2.60
2022-09-18T18:41:39.730Z,2.90
2022-09-18T18:44:07.346Z,3.25
2022-09-18T18:46:36.473Z,2.72
2022-09-18T18:49:12.928Z,2.80
2022-09-18T18:51:47.524Z,3.10
2022-09-18T18:54:18.308Z,2.60
2022-09-18T18:56:47.060Z,3.17
2022-09-18T18:59:17.283Z,3.20
2022-09-18T19:01:45.320Z,3.58
2022-09-18T19:04:15.439Z,3.17
2022-09-18T19:06:44.454Z,3.13
2022-09-18T19:09:20.259Z,3.47
2022-09-18T19:11:49.759Z,3.10
2022-09-18T19:14:20.467Z,3.42
2022-09-18T19:16:48.711Z,3.38
2022-09-18T19:19:17.678Z,3.35
2022-09-18T19:21:44.795Z,2.75
2022-09-18T19:24:12.847Z,3.67
2022-09-18T19:26:41.213Z,3.20
2022-09-18T19:29:12.298Z,4.28
2022-09-18T19:31:41.134Z,3.50
2022-09-18T19:34:11.883Z,3.20
2022-09-18T19:36:39.955Z,3.72
2022-09-18T19:39:08.585Z,3.72
2022-09-18T19:41:47.503Z,3.70
2022-09-18T19:44:23.011Z,3.35
2022-09-18T19:46:52.293Z,3.80
2022-09-18T19:49:22.514Z,4.05
2022-09-18T19:51:49.402Z,3.22
2022-09-18T19:54:16.271Z,4.00
2022-09-18T19:56:48.307Z,4.68
2022-09-18T19:59:17.056Z,3.90
2022-09-18T20:01:44.887Z,4.45
2022-09-18T20:04:11.816Z,3.78
2022-09-18T20:06:40.504Z,4.05
2022-09-18T20:09:08.014Z,3.72
2022-09-18T20:11:35.355Z,3.63
2022-09-18T20:14:02.193Z,3.13
2022-09-18T20:16:29.646Z,2.97
2022-09-18T20:18:56.528Z,3.72
2022-09-18T20:21:24.168Z,3.13
2022-09-18T20:23:56.012Z,2.72
2022-09-18T20:28:49.675Z,2.70
2022-09-18T20:31:17.092Z,2.63
2022-09-18T20:33:44.425Z,3.10
2022-09-18T20:36:12.118Z,2.95
2022-09-18T20:38:41.220Z,2.97
2022-09-18T20:41:16.070Z,2.63
2022-09-18T20:43:44.174Z,2.50
2022-09-18T20:46:15.879Z,3.20
2022-09-18T20:48:46.386Z,2.67
2022-09-18T20:51:14.850Z,2.97
2022-09-18T20:53:45.741Z,3.00
2022-09-18T20:58:42.431Z,4.03
2022-09-18T21:01:12.151Z,3.65
2022-09-18T21:03:42.776Z,3.78
2022-09-18T21:06:22.437Z,4.40
2022-09-18T21:08:53.594Z,4.88
2022-09-18T21:11:28.527Z,5.05
2022-09-18T21:13:59.591Z,5.70
2022-09-18T21:16:29.681Z,6.80
2022-09-18T21:18:57.863Z,6.30
2022-09-18T21:21:26.978Z,6.10
2022-09-18T21:24:02.126Z,6.13
2022-09-18T21:26:35.568Z,6.65
2022-09-18T21:29:04.816Z,7.80
2022-09-18T21:31:35.581Z,7.82
2022-09-18T21:34:04.517Z,7.70
2022-09-18T21:36:38.553Z,7.75
2022-09-18T21:39:08.877Z,8.10
2022-09-18T21:41:38.071Z,8.82
2022-09-18T21:44:08.750Z,7.47
2022-09-18T21:46:38.064Z,8.95
2022-09-18T21:49:06.873Z,7.00
2022-09-18T21:51:35.182Z,8.52
2022-09-18T21:54:05.592Z,8.57
2022-09-18T21:56:33.312Z,8.23
2022-09-18T21:59:00.655Z,7.35
2022-09-18T22:01:33.663Z,6.95
2022-09-18T22:04:03.400Z,7.70
2022-09-18T22:06:36.437Z,7.75
2022-09-18T22:09:09.070Z,7.50
2022-09-18T22:11:37.006Z,6.32
2022-09-18T22:14:07.229Z,7.25
2022-09-18T22:16:34.757Z,5.93
2022-09-18T22:19:02.402Z,6.10
2022-09-18T22:21:33.275Z,7.25
2022-09-18T22:24:08.764Z,6.37
2022-09-18T22:26:41.389Z,6.53
2022-09-18T22:29:20.707Z,6.70
2022-09-18T22:31:49.300Z,6.53
2022-09-18T22:34:22.038Z,6.57
2022-09-18T22:36:49.726Z,6.82
2022-09-18T22:39:18.391Z,5.00
2022-09-18T22:41:45.509Z,5.38
2022-09-18T22:44:12.923Z,5.63
2022-09-18T22:46:42.519Z,5.97
2022-09-18T22:49:12.958Z,5.50
2022-09-18T22:51:40.762Z,4.68
2022-09-18T22:54:07.988Z,4.38
2022-09-18T22:56:46.718Z,3.83
2022-09-18T22:59:16.259Z,3.50
2022-09-18T23:01:51.935Z,3.50
2022-09-18T23:04:20.842Z,3.60
2022-09-18T23:06:48.546Z,3.70
2022-09-18T23:09:17.562Z,4.10
2022-09-18T23:11:46.436Z,4.38
2022-09-18T23:14:18.406Z,3.78
2022-09-18T23:16:45.945Z,2.78
2022-09-18T23:19:28.607Z,3.83
2022-09-18T23:21:55.914Z,3.40
2022-09-18T23:24:23.598Z,3.35
2022-09-18T23:26:52.283Z,3.00
2022-09-18T23:29:22.765Z,2.83
2022-09-18T23:31:53.136Z,3.00
2022-09-18T23:34:23.587Z,2.90
2022-09-18T23:36:52.937Z,3.13
2022-09-18T23:39:28.690Z,2.80
2022-09-18T23:41:58.876Z,3.35
2022-09-18T23:44:28.593Z,4.03
2022-09-18T23:46:56.034Z,2.60
2022-09-18T23:49:23.835Z,2.42
2022-09-18T23:51:54.058Z,2.70
2022-09-18T23:54:29.781Z,2.33
2022-09-18T23:56:56.834Z,2.90
2022-09-18T23:59:25.797Z,2.85
